Aktuální počasí v Česku a ve světě - METAR

Seznam meteostanic umístěných nejčasteji na letišti v ČR a ve světě

Vyhledat místa podle abecedy:
A B C D E F G H I J K L M N O P Q R S T U V W X Y Z

Filtrovat:

ID stanice:
a/nebo
Název místa (fulltext):
 
Místo (ID)Naposledy načteno 
Kadaň - Tušimice (Tusimice) 16.04.2024 04:00 UTC Zobrazit data
Místo: Kadaň - Tušimice
Teplota: 5 °C (pocitová: -2.7 °C)
Vítr: 6 m/s z(e) 260°
Počasí: zataženo
Dohlednost: 35 km
Zákl. oblačnosti: 1/8 1110 m;7/8 4800 m
Vlhkost: 70%
Karlovy Vary (K.Vary) 16.04.2024 04:00 UTC Zobrazit data
Místo: Karlovy Vary
Teplota: 3 °C (pocitová: -4.3 °C)
Vítr: 4 m/s z(e) 260°
Počasí: skoro zataženo
Dohlednost: 20 km
Zákl. oblačnosti: 6/8 510 m
Vlhkost: 81%
Kocelovice (Kocelovice) 16.04.2024 04:00 UTC Zobrazit data
Místo: Kocelovice
Teplota: 4 °C (pocitová: -5.1 °C)
Vítr: 8 m/s z(e) 250°
Počasí: zataženo
Dohlednost: 35 km
Zákl. oblačnosti: 4/8 930 m;7/8 2700 m
Vlhkost: 70%
Kopisty (Kopisty) 15.04.2024 21:00 UTC Zobrazit data
Místo: Kopisty
Teplota: 13 °C (pocitová: 10 °C)
Vítr: 3 m/s z(e) 240°
Počasí: slunečno
Dohlednost: 25 km
Zákl. oblačnosti: N/A
Vlhkost: 38%
Kostelní Myslová (K.Myslova) 16.04.2024 04:00 UTC Zobrazit data
Místo: Kostelní Myslová
Teplota: 4 °C (pocitová: -2 °C)
Vítr: 3 m/s z(e) 280°
Počasí: oblačno
Dohlednost: 35 km
Zákl. oblačnosti: 1/8 780 m;3/8 2100 m
Vlhkost: 70%
Křešín - Kramolín (Kramolin) 16.04.2024 04:00 UTC Zobrazit data
Místo: Křešín - Kramolín
Teplota: 4 °C (pocitová: -4.1 °C)
Vítr: 6 m/s z(e) 260°
Počasí: zataženo
Dohlednost: 35 km
Zákl. oblačnosti: 8/8 3000 m
Vlhkost: 65%
Kuchařovice - Znojmo (Kucharovic) 16.04.2024 04:00 UTC Zobrazit data
Místo: Kuchařovice - Znojmo
Teplota: 7 °C (pocitová: 1.2 °C)
Vítr: 4 m/s z(e) 320°
Počasí: zataženo
Dohlednost: 35 km
Zákl. oblačnosti: 8/8 2100 m
Vlhkost: 57%
Kabul (OAKB) 30.08.2021 16:50 UTC Zobrazit METAR
OAKB 301650Z AUTO VRB03KT 9999 -SHRA FEW060 BKN075 OVC090 23/08 A3007 RMK AO2 SHRAB1541E1551B1616 SLP015 WND DATA ESTMD P0000 T02270083 TSNO $
Kajaani (EFKI) 16.04.2024 03:50 UTC Zobrazit METAR
EFKI 160350Z AUTO 36004KT 9999 -SHRA OVC009 01/00 Q0997
Kardla (EEKA) 16.04.2024 03:50 UTC Zobrazit METAR
EEKA 160350Z 21003KT 160V250 9999 OVC007 02/01 Q0998
Karlsruhe/ Baden-Baden (EDSB) 16.04.2024 03:50 UTC Zobrazit METAR
EDSB 160350Z 23007KT 210V270 9999 FEW030 06/02 Q1010
Karup (EKKA) 16.04.2024 03:50 UTC Zobrazit METAR
EKKA 160350Z AUTO 03008KT 9999 BKN230/// 04/02 Q0996
Kathmandu (VNKT) 16.04.2024 04:00 UTC Zobrazit METAR
VNKT 160400Z VRB02KT 4000 HZ FEW015 BKN250 25/13 Q1017 NOSIG
Katowice (EPKT) 16.04.2024 04:00 UTC Zobrazit METAR
EPKT 160400Z 29016KT 9999 FEW020 SCT029 07/03 Q1000
Kaunas (EYKA) 16.04.2024 03:50 UTC Zobrazit METAR
EYKA 160350Z 08006KT CAVOK 02/00 Q0998
Kavala (LGKV) 16.04.2024 03:50 UTC Zobrazit METAR
LGKV 160350Z 02006KT 9999 FEW025 SCT070 14/10 Q1010
Kazan (UWKD) Zatím nenačteno  
Kefallinia (LGKF) 15.04.2024 19:50 UTC Zobrazit METAR
LGKF 151950Z 00000KT 9999 FEW005 16/15 Q1017
Kemi (EFKE) 16.04.2024 03:50 UTC Zobrazit METAR
EFKE 160350Z AUTO 02008KT 9999 -SN OVC006 00/M00 Q1001
Kerkira (LGKR) 16.04.2024 03:50 UTC Zobrazit METAR
LGKR 160350Z 00000KT 9999 FEW016 18/16 Q1012 NOSIG
Kerry (EIKY) 15.04.2024 16:30 UTC Zobrazit METAR
EIKY 151630Z 30014G29KT 240V330 9999 BKN034 10/04 Q1019
Khartoum (HSSS) 04.12.2022 14:30 UTC Zobrazit METAR
HSSS 041430Z 35009KT CAVOK 34/09 Q1009 NOSIG
Kigali (HRYR) 16.04.2024 03:00 UTC Zobrazit METAR
HRYR 160300Z 29004KT 9999 -RA FEW010 BKN020 BKN090 18/18 Q1022 NOSIG
Kingston (MKJP) 16.04.2024 04:00 UTC Zobrazit METAR
MKJP 160400Z VRB02KT 9999 FEW022 28/24 Q1013
Kingstown (TVSV) 13.12.2019 20:43 UTC Zobrazit METAR
TVSV 132043Z 12005G18KT 4000 SHRA BKN014 27/23 Q1010
Kinshasa (FZAA) 15.04.2024 20:00 UTC Zobrazit METAR
FZAA 152000Z 00000KT 7000 FEW018 28/24 Q1012 NOSIG
Kittila (EFKT) 16.04.2024 03:50 UTC Zobrazit METAR
EFKT 160350Z AUTO 05012KT 020V090 9999 -SHSN OVC016 M01/M05 Q1003
Klagenfurt (LOWK) 16.04.2024 03:50 UTC Zobrazit METAR
LOWK 160350Z AUTO 08003KT 040V180 9999 FEW060 SCT070 12/07 Q1001 NOSIG
Kortrijk-Wevelgem (EBKT) Zatím nenačteno  
Kosice (LZKZ) 16.04.2024 04:00 UTC Zobrazit METAR
LZKZ 160400Z 24010KT 9999 -RA SCT008 12/11 Q1003 NOSIG
Krakow (EPKK) 16.04.2024 04:00 UTC Zobrazit METAR
EPKK 160400Z 23011KT 9999 FEW050 10/06 Q1000
Kuala Lumpur (WMKK) 16.04.2024 04:00 UTC Zobrazit METAR
WMKK 160400Z VRB03KT 9999 FEW018 33/25 Q1010 NOSIG
Kuopio (EFKU) 16.04.2024 03:50 UTC Zobrazit METAR
EFKU 160350Z AUTO 33005KT 9999 -SHRA OVC008 02/01 Q0996
Kuressaare (EEKE) 15.04.2024 16:50 UTC Zobrazit METAR
EEKE 151650Z 31007KT 270V340 9999 BKN011 05/02 Q1002
Kuwait (OKBK) 23.02.2023 08:00 UTC Zobrazit METAR
OKBK 230800Z 06008KT 8000 NSC 22/05 Q1012 NOSIG
Kyiv (UKBB) Zatím nenačteno  
Reklama

Krásné fotografie přírody - (nejen) tapety na pozadí do počítače

Článek
Fotogalerie jarních květin
13. dubna 2023 12:19
Článek
Fotografie slunečné zimní krajiny
7. prosince 2022 17:13
Článek
Obrázky na téma slunečno
25. srpna 2022 05:03
Článek
Obrázky květin
5. června 2022 12:12

Vyhledat
Přidejte si Počasí Slunečno na svůj Facebook
Facebook Počasí Slunečno.cz
Aplikace pro Windows 10/11 nebo chytré mobilní telefony
Stáhněte si aplikaci Slunečno.cz na Microsoft Store Stáhněte si aplikaci Slunečno.cz na Google Play